sensor_id;sensor_type;location;lat;lon;timestamp;P1;durP1;ratioP1;P2;durP2;ratioP2
7563;SDS011;3823;53.586;10.040;2022-12-07T00:01:38;18.30;;;12.52;;
7563;SDS011;3823;53.586;10.040;2022-12-07T00:04:06;18.77;;;12.63;;
7563;SDS011;3823;53.586;10.040;2022-12-07T00:06:37;19.02;;;12.82;;
7563;SDS011;3823;53.586;10.040;2022-12-07T00:09:04;19.73;;;13.70;;
7563;SDS011;3823;53.586;10.040;2022-12-07T00:11:31;22.52;;;14.13;;
7563;SDS011;3823;53.586;10.040;2022-12-07T00:13:57;18.35;;;12.95;;
7563;SDS011;3823;53.586;10.040;2022-12-07T00:16:27;19.10;;;12.70;;
7563;SDS011;3823;53.586;10.040;2022-12-07T00:18:55;16.33;;;12.25;;
7563;SDS011;3823;53.586;10.040;2022-12-07T00:21:22;20.42;;;12.77;;
7563;SDS011;3823;53.586;10.040;2022-12-07T00:23:52;18.35;;;12.40;;
7563;SDS011;3823;53.586;10.040;2022-12-07T00:26:20;21.25;;;13.45;;
7563;SDS011;3823;53.586;10.040;2022-12-07T00:28:48;21.77;;;14.02;;
7563;SDS011;3823;53.586;10.040;2022-12-07T00:31:20;26.90;;;14.10;;
7563;SDS011;3823;53.586;10.040;2022-12-07T00:33:47;22.08;;;13.27;;
7563;SDS011;3823;53.586;10.040;2022-12-07T00:36:17;19.35;;;13.55;;
7563;SDS011;3823;53.586;10.040;2022-12-07T00:38:44;22.42;;;14.50;;
7563;SDS011;3823;53.586;10.040;2022-12-07T00:41:11;19.27;;;12.85;;
7563;SDS011;3823;53.586;10.040;2022-12-07T00:43:39;22.98;;;13.23;;
7563;SDS011;3823;53.586;10.040;2022-12-07T00:46:05;26.38;;;13.90;;
7563;SDS011;3823;53.586;10.040;2022-12-07T00:48:31;19.67;;;13.35;;
7563;SDS011;3823;53.586;10.040;2022-12-07T00:50:57;20.05;;;12.50;;
7563;SDS011;3823;53.586;10.040;2022-12-07T00:53:22;20.63;;;13.88;;
7563;SDS011;3823;53.586;10.040;2022-12-07T00:55:48;19.05;;;13.07;;
7563;SDS011;3823;53.586;10.040;2022-12-07T00:58:14;17.27;;;11.57;;
7563;SDS011;3823;53.586;10.040;2022-12-07T01:00:40;19.42;;;13.13;;
7563;SDS011;3823;53.586;10.040;2022-12-07T01:03:09;21.15;;;11.05;;
7563;SDS011;3823;53.586;10.040;2022-12-07T01:05:36;16.90;;;11.98;;
7563;SDS011;3823;53.586;10.040;2022-12-07T01:08:02;22.38;;;11.95;;
7563;SDS011;3823;53.586;10.040;2022-12-07T01:10:28;18.02;;;11.45;;
7563;SDS011;3823;53.586;10.040;2022-12-07T01:12:55;21.92;;;11.20;;
7563;SDS011;3823;53.586;10.040;2022-12-07T01:15:21;18.10;;;12.13;;
7563;SDS011;3823;53.586;10.040;2022-12-07T01:17:47;16.88;;;10.25;;
7563;SDS011;3823;53.586;10.040;2022-12-07T01:20:12;18.65;;;10.63;;
7563;SDS011;3823;53.586;10.040;2022-12-07T01:22:39;17.42;;;10.20;;
7563;SDS011;3823;53.586;10.040;2022-12-07T01:25:06;13.73;;;10.60;;
7563;SDS011;3823;53.586;10.040;2022-12-07T01:27:33;15.82;;;9.82;;
7563;SDS011;3823;53.586;10.040;2022-12-07T01:29:59;16.38;;;10.25;;
7563;SDS011;3823;53.586;10.040;2022-12-07T01:32:25;15.98;;;10.15;;
7563;SDS011;3823;53.586;10.040;2022-12-07T01:34:51;12.95;;;9.55;;
7563;SDS011;3823;53.586;10.040;2022-12-07T01:37:17;16.30;;;10.32;;
7563;SDS011;3823;53.586;10.040;2022-12-07T01:39:42;15.18;;;9.52;;
7563;SDS011;3823;53.586;10.040;2022-12-07T01:42:11;15.70;;;10.20;;
7563;SDS011;3823;53.586;10.040;2022-12-07T01:47:41;20.08;;;12.15;;
7563;SDS011;3823;53.586;10.040;2022-12-07T01:50:09;15.05;;;10.63;;
7563;SDS011;3823;53.586;10.040;2022-12-07T01:52:35;19.45;;;11.05;;
7563;SDS011;3823;53.586;10.040;2022-12-07T01:55:04;17.75;;;11.30;;
7563;SDS011;3823;53.586;10.040;2022-12-07T01:57:33;16.75;;;10.38;;
7563;SDS011;3823;53.586;10.040;2022-12-07T02:00:02;15.75;;;10.07;;
7563;SDS011;3823;53.586;10.040;2022-12-07T02:02:31;17.45;;;10.00;;
7563;SDS011;3823;53.586;10.040;2022-12-07T02:05:00;15.00;;;10.45;;
7563;SDS011;3823;53.586;10.040;2022-12-07T02:07:27;17.20;;;11.05;;
7563;SDS011;3823;53.586;10.040;2022-12-07T02:09:54;13.30;;;10.52;;
7563;SDS011;3823;53.586;10.040;2022-12-07T02:12:19;17.00;;;9.45;;
7563;SDS011;3823;53.586;10.040;2022-12-07T02:14:46;12.27;;;8.75;;
7563;SDS011;3823;53.586;10.040;2022-12-07T02:29:22;10.18;;;6.57;;
7563;SDS011;3823;53.586;10.040;2022-12-07T02:34:49;10.93;;;6.65;;
7563;SDS011;3823;53.586;10.040;2022-12-07T02:37:34;10.70;;;5.57;;
7563;SDS011;3823;53.586;10.040;2022-12-07T02:46:07;11.57;;;5.18;;
7563;SDS011;3823;53.586;10.040;2022-12-07T02:48:36;5.70;;;4.32;;
7563;SDS011;3823;53.586;10.040;2022-12-07T02:51:04;6.47;;;4.45;;
7563;SDS011;3823;53.586;10.040;2022-12-07T02:53:37;12.10;;;5.20;;
7563;SDS011;3823;53.586;10.040;2022-12-07T02:56:09;10.55;;;3.65;;
7563;SDS011;3823;53.586;10.040;2022-12-07T02:58:55;4.70;;;3.92;;
7563;SDS011;3823;53.586;10.040;2022-12-07T03:04:51;5.65;;;3.00;;
7563;SDS011;3823;53.586;10.040;2022-12-07T03:07:42;7.43;;;4.43;;
7563;SDS011;3823;53.586;10.040;2022-12-07T03:10:34;3.83;;;3.08;;
7563;SDS011;3823;53.586;10.040;2022-12-07T03:18:28;4.55;;;3.03;;
7563;SDS011;3823;53.586;10.040;2022-12-07T03:20:58;6.47;;;3.40;;
7563;SDS011;3823;53.586;10.040;2022-12-07T03:23:29;3.67;;;2.63;;
7563;SDS011;3823;53.586;10.040;2022-12-07T03:26:00;8.75;;;2.83;;
7563;SDS011;3823;53.586;10.040;2022-12-07T03:28:29;3.28;;;1.60;;
7563;SDS011;3823;53.586;10.040;2022-12-07T03:33:53;2.10;;;1.85;;
7563;SDS011;3823;53.586;10.040;2022-12-07T03:38:55;2.15;;;1.95;;
7563;SDS011;3823;53.586;10.040;2022-12-07T03:41:29;2.33;;;2.13;;
7563;SDS011;3823;53.586;10.040;2022-12-07T03:43:58;2.50;;;1.33;;
7563;SDS011;3823;53.586;10.040;2022-12-07T03:51:54;2.38;;;1.42;;
7563;SDS011;3823;53.586;10.040;2022-12-07T03:57:56;4.90;;;1.10;;
7563;SDS011;3823;53.586;10.040;2022-12-07T04:00:25;3.45;;;1.45;;
7563;SDS011;3823;53.586;10.040;2022-12-07T04:02:55;2.40;;;1.20;;
7563;SDS011;3823;53.586;10.040;2022-12-07T04:05:21;2.95;;;1.30;;
7563;SDS011;3823;53.586;10.040;2022-12-07T04:07:46;2.42;;;1.20;;
7563;SDS011;3823;53.586;10.040;2022-12-07T04:10:12;1.83;;;1.50;;
7563;SDS011;3823;53.586;10.040;2022-12-07T04:12:38;1.90;;;1.00;;
7563;SDS011;3823;53.586;10.040;2022-12-07T04:15:04;2.15;;;1.08;;
7563;SDS011;3823;53.586;10.040;2022-12-07T04:17:30;1.30;;;1.20;;
7563;SDS011;3823;53.586;10.040;2022-12-07T04:19:55;2.13;;;1.92;;
7563;SDS011;3823;53.586;10.040;2022-12-07T04:22:21;4.07;;;1.88;;
7563;SDS011;3823;53.586;10.040;2022-12-07T04:24:46;3.38;;;1.50;;
7563;SDS011;3823;53.586;10.040;2022-12-07T04:27:12;3.22;;;1.63;;
7563;SDS011;3823;53.586;10.040;2022-12-07T04:29:38;3.30;;;1.70;;
7563;SDS011;3823;53.586;10.040;2022-12-07T04:32:03;4.85;;;1.85;;
7563;SDS011;3823;53.586;10.040;2022-12-07T04:34:29;2.10;;;1.73;;
7563;SDS011;3823;53.586;10.040;2022-12-07T04:36:55;3.35;;;1.63;;
7563;SDS011;3823;53.586;10.040;2022-12-07T04:39:22;1.88;;;1.55;;
7563;SDS011;3823;53.586;10.040;2022-12-07T04:41:50;4.00;;;2.25;;
7563;SDS011;3823;53.586;10.040;2022-12-07T04:44:15;3.15;;;2.30;;
7563;SDS011;3823;53.586;10.040;2022-12-07T04:46:42;2.28;;;2.08;;
7563;SDS011;3823;53.586;10.040;2022-12-07T04:49:08;2.58;;;2.38;;
7563;SDS011;3823;53.586;10.040;2022-12-07T04:51:34;2.17;;;1.73;;
7563;SDS011;3823;53.586;10.040;2022-12-07T04:54:00;3.03;;;2.10;;
7563;SDS011;3823;53.586;10.040;2022-12-07T04:56:25;3.78;;;2.33;;
7563;SDS011;3823;53.586;10.040;2022-12-07T04:58:52;2.10;;;1.90;;
7563;SDS011;3823;53.586;10.040;2022-12-07T05:01:19;3.05;;;2.55;;
7563;SDS011;3823;53.586;10.040;2022-12-07T05:03:46;5.13;;;1.70;;
7563;SDS011;3823;53.586;10.040;2022-12-07T05:06:12;3.28;;;1.98;;
7563;SDS011;3823;53.586;10.040;2022-12-07T05:08:38;2.67;;;2.53;;
7563;SDS011;3823;53.586;10.040;2022-12-07T05:11:04;3.03;;;2.45;;
7563;SDS011;3823;53.586;10.040;2022-12-07T05:13:31;4.70;;;2.50;;
7563;SDS011;3823;53.586;10.040;2022-12-07T05:15:57;4.35;;;2.05;;
7563;SDS011;3823;53.586;10.040;2022-12-07T05:18:23;1.98;;;1.40;;
7563;SDS011;3823;53.586;10.040;2022-12-07T05:20:49;3.97;;;2.00;;
7563;SDS011;3823;53.586;10.040;2022-12-07T05:23:16;7.05;;;2.20;;
7563;SDS011;3823;53.586;10.040;2022-12-07T05:25:41;3.65;;;2.67;;
7563;SDS011;3823;53.586;10.040;2022-12-07T05:28:08;3.05;;;2.10;;
7563;SDS011;3823;53.586;10.040;2022-12-07T05:30:33;3.47;;;1.90;;
7563;SDS011;3823;53.586;10.040;2022-12-07T05:32:59;3.03;;;2.03;;
7563;SDS011;3823;53.586;10.040;2022-12-07T05:35:25;2.75;;;2.55;;
7563;SDS011;3823;53.586;10.040;2022-12-07T05:37:50;3.33;;;2.30;;
7563;SDS011;3823;53.586;10.040;2022-12-07T05:40:16;3.35;;;2.63;;
7563;SDS011;3823;53.586;10.040;2022-12-07T05:42:43;2.30;;;2.10;;
7563;SDS011;3823;53.586;10.040;2022-12-07T05:45:09;2.40;;;2.20;;
7563;SDS011;3823;53.586;10.040;2022-12-07T05:47:35;6.35;;;2.47;;
7563;SDS011;3823;53.586;10.040;2022-12-07T05:50:02;3.67;;;2.80;;
7563;SDS011;3823;53.586;10.040;2022-12-07T05:52:29;3.30;;;3.00;;
7563;SDS011;3823;53.586;10.040;2022-12-07T05:54:54;4.47;;;3.30;;
7563;SDS011;3823;53.586;10.040;2022-12-07T05:57:20;3.13;;;2.45;;
7563;SDS011;3823;53.586;10.040;2022-12-07T05:59:45;3.17;;;2.88;;
7563;SDS011;3823;53.586;10.040;2022-12-07T06:02:12;3.15;;;2.85;;
7563;SDS011;3823;53.586;10.040;2022-12-07T06:04:41;3.97;;;2.63;;
7563;SDS011;3823;53.586;10.040;2022-12-07T06:07:11;8.98;;;3.10;;
7563;SDS011;3823;53.586;10.040;2022-12-07T06:09:38;5.68;;;2.72;;
7563;SDS011;3823;53.586;10.040;2022-12-07T06:12:04;4.47;;;2.97;;
7563;SDS011;3823;53.586;10.040;2022-12-07T06:14:50;3.42;;;2.88;;
7563;SDS011;3823;53.586;10.040;2022-12-07T06:17:16;3.47;;;3.17;;
7563;SDS011;3823;53.586;10.040;2022-12-07T06:19:42;3.05;;;2.28;;
7563;SDS011;3823;53.586;10.040;2022-12-07T06:22:08;4.55;;;2.88;;
7563;SDS011;3823;53.586;10.040;2022-12-07T06:24:35;5.40;;;3.05;;
7563;SDS011;3823;53.586;10.040;2022-12-07T06:27:01;2.80;;;2.47;;
7563;SDS011;3823;53.586;10.040;2022-12-07T06:29:27;5.80;;;2.55;;
7563;SDS011;3823;53.586;10.040;2022-12-07T06:31:52;4.72;;;2.28;;
7563;SDS011;3823;53.586;10.040;2022-12-07T06:34:19;4.65;;;2.83;;
7563;SDS011;3823;53.586;10.040;2022-12-07T06:36:47;6.05;;;2.47;;
7563;SDS011;3823;53.586;10.040;2022-12-07T06:39:16;3.85;;;2.60;;
7563;SDS011;3823;53.586;10.040;2022-12-07T06:41:47;7.53;;;3.08;;
7563;SDS011;3823;53.586;10.040;2022-12-07T06:44:12;3.50;;;2.15;;
7563;SDS011;3823;53.586;10.040;2022-12-07T06:46:38;4.93;;;2.70;;
7563;SDS011;3823;53.586;10.040;2022-12-07T06:49:04;5.25;;;2.55;;
7563;SDS011;3823;53.586;10.040;2022-12-07T06:51:31;2.75;;;2.10;;
7563;SDS011;3823;53.586;10.040;2022-12-07T06:53:57;3.30;;;2.58;;
7563;SDS011;3823;53.586;10.040;2022-12-07T06:56:23;2.92;;;2.58;;
7563;SDS011;3823;53.586;10.040;2022-12-07T06:58:49;3.60;;;2.58;;
7563;SDS011;3823;53.586;10.040;2022-12-07T07:01:16;2.85;;;1.85;;
7563;SDS011;3823;53.586;10.040;2022-12-07T07:03:43;4.15;;;3.15;;
7563;SDS011;3823;53.586;10.040;2022-12-07T07:06:10;2.33;;;1.90;;
7563;SDS011;3823;53.586;10.040;2022-12-07T07:08:36;4.95;;;2.60;;
7563;SDS011;3823;53.586;10.040;2022-12-07T07:11:02;3.55;;;2.80;;
7563;SDS011;3823;53.586;10.040;2022-12-07T07:13:28;1.55;;;1.45;;
7563;SDS011;3823;53.586;10.040;2022-12-07T07:15:54;1.90;;;1.65;;
7563;SDS011;3823;53.586;10.040;2022-12-07T07:18:20;6.55;;;2.45;;
7563;SDS011;3823;53.586;10.040;2022-12-07T07:20:46;3.30;;;1.60;;
7563;SDS011;3823;53.586;10.040;2022-12-07T07:23:11;5.38;;;2.75;;
7563;SDS011;3823;53.586;10.040;2022-12-07T07:25:37;3.97;;;1.33;;
7563;SDS011;3823;53.586;10.040;2022-12-07T07:28:03;2.30;;;2.10;;
7563;SDS011;3823;53.586;10.040;2022-12-07T07:30:29;3.15;;;1.70;;
7563;SDS011;3823;53.586;10.040;2022-12-07T07:32:56;5.55;;;1.88;;
7563;SDS011;3823;53.586;10.040;2022-12-07T07:35:23;1.98;;;1.63;;
7563;SDS011;3823;53.586;10.040;2022-12-07T07:37:49;5.40;;;1.92;;
7563;SDS011;3823;53.586;10.040;2022-12-07T07:40:15;5.45;;;1.88;;
7563;SDS011;3823;53.586;10.040;2022-12-07T07:42:40;6.13;;;1.15;;
7563;SDS011;3823;53.586;10.040;2022-12-07T07:45:06;3.60;;;1.63;;
7563;SDS011;3823;53.586;10.040;2022-12-07T07:47:32;7.88;;;2.00;;
7563;SDS011;3823;53.586;10.040;2022-12-07T07:49:58;4.38;;;1.73;;
7563;SDS011;3823;53.586;10.040;2022-12-07T07:52:24;4.70;;;1.65;;
7563;SDS011;3823;53.586;10.040;2022-12-07T07:54:49;2.05;;;1.35;;
7563;SDS011;3823;53.586;10.040;2022-12-07T07:57:18;1.90;;;1.75;;
7563;SDS011;3823;53.586;10.040;2022-12-07T07:59:43;2.92;;;2.72;;
7563;SDS011;3823;53.586;10.040;2022-12-07T08:02:19;2.67;;;1.20;;
7563;SDS011;3823;53.586;10.040;2022-12-07T08:04:45;7.68;;;1.63;;
7563;SDS011;3823;53.586;10.040;2022-12-07T08:07:11;1.38;;;1.10;;
7563;SDS011;3823;53.586;10.040;2022-12-07T08:09:38;3.47;;;1.20;;
7563;SDS011;3823;53.586;10.040;2022-12-07T08:12:03;4.18;;;1.40;;
7563;SDS011;3823;53.586;10.040;2022-12-07T08:14:29;2.28;;;1.45;;
7563;SDS011;3823;53.586;10.040;2022-12-07T08:16:55;3.05;;;1.65;;
7563;SDS011;3823;53.586;10.040;2022-12-07T08:19:21;3.63;;;1.38;;
7563;SDS011;3823;53.586;10.040;2022-12-07T08:21:47;4.78;;;1.50;;
7563;SDS011;3823;53.586;10.040;2022-12-07T08:24:12;7.18;;;1.50;;
7563;SDS011;3823;53.586;10.040;2022-12-07T08:26:38;3.13;;;1.48;;
7563;SDS011;3823;53.586;10.040;2022-12-07T08:29:04;1.55;;;0.98;;
7563;SDS011;3823;53.586;10.040;2022-12-07T08:31:29;3.05;;;1.23;;
7563;SDS011;3823;53.586;10.040;2022-12-07T08:33:55;4.13;;;1.30;;
7563;SDS011;3823;53.586;10.040;2022-12-07T08:36:21;2.95;;;1.10;;
7563;SDS011;3823;53.586;10.040;2022-12-07T08:38:47;8.68;;;1.40;;
7563;SDS011;3823;53.586;10.040;2022-12-07T08:41:13;6.63;;;1.25;;
7563;SDS011;3823;53.586;10.040;2022-12-07T08:43:39;2.45;;;1.00;;
7563;SDS011;3823;53.586;10.040;2022-12-07T08:48:59;7.07;;;1.25;;
7563;SDS011;3823;53.586;10.040;2022-12-07T08:51:29;1.80;;;1.05;;
7563;SDS011;3823;53.586;10.040;2022-12-07T08:53:55;4.53;;;1.00;;
7563;SDS011;3823;53.586;10.040;2022-12-07T08:56:23;6.03;;;1.40;;
7563;SDS011;3823;53.586;10.040;2022-12-07T08:58:49;1.08;;;0.52;;
7563;SDS011;3823;53.586;10.040;2022-12-07T09:01:15;6.80;;;1.20;;
7563;SDS011;3823;53.586;10.040;2022-12-07T09:03:41;5.32;;;1.55;;
7563;SDS011;3823;53.586;10.040;2022-12-07T09:06:07;6.50;;;1.30;;
7563;SDS011;3823;53.586;10.040;2022-12-07T09:08:34;2.90;;;1.30;;
7563;SDS011;3823;53.586;10.040;2022-12-07T09:11:04;4.57;;;1.48;;
7563;SDS011;3823;53.586;10.040;2022-12-07T09:13:30;2.40;;;1.38;;
7563;SDS011;3823;53.586;10.040;2022-12-07T09:15:55;4.55;;;1.50;;
7563;SDS011;3823;53.586;10.040;2022-12-07T09:18:21;2.13;;;1.23;;
7563;SDS011;3823;53.586;10.040;2022-12-07T09:20:46;4.63;;;1.33;;
7563;SDS011;3823;53.586;10.040;2022-12-07T09:23:12;9.80;;;2.50;;
7563;SDS011;3823;53.586;10.040;2022-12-07T09:25:38;3.97;;;2.08;;
7563;SDS011;3823;53.586;10.040;2022-12-07T09:28:03;5.00;;;1.77;;
7563;SDS011;3823;53.586;10.040;2022-12-07T09:30:29;4.18;;;1.50;;
7563;SDS011;3823;53.586;10.040;2022-12-07T09:32:55;3.55;;;1.50;;
7563;SDS011;3823;53.586;10.040;2022-12-07T09:35:22;2.35;;;1.23;;
7563;SDS011;3823;53.586;10.040;2022-12-07T09:37:48;2.72;;;1.30;;
7563;SDS011;3823;53.586;10.040;2022-12-07T09:40:14;7.03;;;1.42;;
7563;SDS011;3823;53.586;10.040;2022-12-07T09:42:44;3.20;;;1.50;;
7563;SDS011;3823;53.586;10.040;2022-12-07T09:45:17;3.17;;;1.40;;
7563;SDS011;3823;53.586;10.040;2022-12-07T09:47:46;4.55;;;1.85;;
7563;SDS011;3823;53.586;10.040;2022-12-07T09:50:13;6.68;;;1.25;;
7563;SDS011;3823;53.586;10.040;2022-12-07T09:52:45;3.05;;;1.33;;
7563;SDS011;3823;53.586;10.040;2022-12-07T09:55:14;6.70;;;1.70;;
7563;SDS011;3823;53.586;10.040;2022-12-07T09:57:44;6.03;;;1.88;;
7563;SDS011;3823;53.586;10.040;2022-12-07T10:00:12;3.97;;;1.98;;
7563;SDS011;3823;53.586;10.040;2022-12-07T10:02:40;6.78;;;1.42;;
7563;SDS011;3823;53.586;10.040;2022-12-07T10:05:13;2.17;;;0.95;;
7563;SDS011;3823;53.586;10.040;2022-12-07T10:07:41;4.97;;;1.58;;
7563;SDS011;3823;53.586;10.040;2022-12-07T10:18:16;5.72;;;2.10;;
7563;SDS011;3823;53.586;10.040;2022-12-07T10:21:00;11.43;;;1.75;;
7563;SDS011;3823;53.586;10.040;2022-12-07T10:23:27;5.10;;;1.40;;
7563;SDS011;3823;53.586;10.040;2022-12-07T10:25:53;2.35;;;1.10;;
7563;SDS011;3823;53.586;10.040;2022-12-07T10:28:20;4.20;;;1.30;;
7563;SDS011;3823;53.586;10.040;2022-12-07T10:31:02;2.55;;;1.20;;
7563;SDS011;3823;53.586;10.040;2022-12-07T10:36:17;1.52;;;1.25;;
7563;SDS011;3823;53.586;10.040;2022-12-07T10:39:01;4.10;;;1.30;;
7563;SDS011;3823;53.586;10.040;2022-12-07T10:41:35;5.85;;;1.33;;
7563;SDS011;3823;53.586;10.040;2022-12-07T10:44:20;5.80;;;1.33;;
7563;SDS011;3823;53.586;10.040;2022-12-07T10:46:53;2.92;;;1.20;;
7563;SDS011;3823;53.586;10.040;2022-12-07T10:49:38;5.30;;;1.25;;
7563;SDS011;3823;53.586;10.040;2022-12-07T10:52:18;1.65;;;0.90;;
7563;SDS011;3823;53.586;10.040;2022-12-07T10:57:35;3.08;;;1.63;;
7563;SDS011;3823;53.586;10.040;2022-12-07T11:00:24;6.07;;;2.17;;
7563;SDS011;3823;53.586;10.040;2022-12-07T11:05:52;6.35;;;1.35;;
7563;SDS011;3823;53.586;10.040;2022-12-07T11:19:04;3.58;;;1.20;;
7563;SDS011;3823;53.586;10.040;2022-12-07T11:21:44;9.07;;;2.45;;
7563;SDS011;3823;53.586;10.040;2022-12-07T11:24:17;2.40;;;1.00;;
7563;SDS011;3823;53.586;10.040;2022-12-07T11:38:01;5.13;;;1.45;;
7563;SDS011;3823;53.586;10.040;2022-12-07T11:40:36;2.80;;;0.73;;
7563;SDS011;3823;53.586;10.040;2022-12-07T11:48:38;3.78;;;1.23;;
7563;SDS011;3823;53.586;10.040;2022-12-07T11:51:10;5.65;;;1.48;;
7563;SDS011;3823;53.586;10.040;2022-12-07T11:53:42;1.35;;;0.90;;
7563;SDS011;3823;53.586;10.040;2022-12-07T11:56:15;2.60;;;1.00;;
7563;SDS011;3823;53.586;10.040;2022-12-07T11:58:51;4.90;;;1.17;;
7563;SDS011;3823;53.586;10.040;2022-12-07T12:06:34;4.28;;;1.15;;
7563;SDS011;3823;53.586;10.040;2022-12-07T12:09:06;3.80;;;1.05;;
7563;SDS011;3823;53.586;10.040;2022-12-07T12:22:26;5.35;;;1.20;;
7563;SDS011;3823;53.586;10.040;2022-12-07T12:25:05;7.22;;;1.35;;
7563;SDS011;3823;53.586;10.040;2022-12-07T12:27:40;10.55;;;1.35;;
7563;SDS011;3823;53.586;10.040;2022-12-07T12:33:00;2.38;;;1.00;;
7563;SDS011;3823;53.586;10.040;2022-12-07T12:36:16;2.33;;;1.75;;
7563;SDS011;3823;53.586;10.040;2022-12-07T12:46:55;3.95;;;1.20;;
7563;SDS011;3823;53.586;10.040;2022-12-07T12:56:46;12.00;;;1.35;;
7563;SDS011;3823;53.586;10.040;2022-12-07T13:04:50;3.47;;;0.82;;
7563;SDS011;3823;53.586;10.040;2022-12-07T13:15:41;7.05;;;1.17;;
7563;SDS011;3823;53.586;10.040;2022-12-07T13:20:54;5.18;;;0.77;;
7563;SDS011;3823;53.586;10.040;2022-12-07T13:23:37;3.38;;;0.98;;
7563;SDS011;3823;53.586;10.040;2022-12-07T13:28:44;5.38;;;1.02;;
7563;SDS011;3823;53.586;10.040;2022-12-07T13:31:16;4.60;;;1.63;;
7563;SDS011;3823;53.586;10.040;2022-12-07T13:33:44;2.50;;;1.15;;
7563;SDS011;3823;53.586;10.040;2022-12-07T13:36:17;2.33;;;0.98;;
7563;SDS011;3823;53.586;10.040;2022-12-07T13:38:51;5.85;;;1.65;;
7563;SDS011;3823;53.586;10.040;2022-12-07T13:41:19;3.97;;;1.00;;
7563;SDS011;3823;53.586;10.040;2022-12-07T13:43:52;5.70;;;1.00;;
7563;SDS011;3823;53.586;10.040;2022-12-07T13:46:19;3.92;;;0.98;;
7563;SDS011;3823;53.586;10.040;2022-12-07T13:48:50;2.78;;;0.85;;
7563;SDS011;3823;53.586;10.040;2022-12-07T13:51:18;4.18;;;0.80;;
7563;SDS011;3823;53.586;10.040;2022-12-07T13:53:48;1.98;;;0.93;;
7563;SDS011;3823;53.586;10.040;2022-12-07T13:56:15;5.03;;;1.48;;
7563;SDS011;3823;53.586;10.040;2022-12-07T13:58:41;4.38;;;1.80;;
7563;SDS011;3823;53.586;10.040;2022-12-07T14:01:07;6.95;;;1.67;;
7563;SDS011;3823;53.586;10.040;2022-12-07T14:03:33;2.35;;;1.80;;
7563;SDS011;3823;53.586;10.040;2022-12-07T14:06:46;1.75;;;0.70;;
7563;SDS011;3823;53.586;10.040;2022-12-07T14:11:45;2.30;;;1.23;;
7563;SDS011;3823;53.586;10.040;2022-12-07T14:14:33;15.02;;;1.23;;
7563;SDS011;3823;53.586;10.040;2022-12-07T14:17:00;4.80;;;1.10;;
7563;SDS011;3823;53.586;10.040;2022-12-07T14:22:09;7.05;;;0.88;;
7563;SDS011;3823;53.586;10.040;2022-12-07T14:24:46;2.63;;;1.02;;
7563;SDS011;3823;53.586;10.040;2022-12-07T14:27:19;1.58;;;0.98;;
7563;SDS011;3823;53.586;10.040;2022-12-07T14:29:47;2.28;;;0.90;;
7563;SDS011;3823;53.586;10.040;2022-12-07T14:32:23;1.60;;;0.68;;
7563;SDS011;3823;53.586;10.040;2022-12-07T14:34:57;4.30;;;0.88;;
7563;SDS011;3823;53.586;10.040;2022-12-07T14:37:25;4.40;;;1.02;;
7563;SDS011;3823;53.586;10.040;2022-12-07T14:39:52;2.28;;;0.80;;
7563;SDS011;3823;53.586;10.040;2022-12-07T14:42:18;3.50;;;1.10;;
7563;SDS011;3823;53.586;10.040;2022-12-07T14:44:44;10.52;;;0.75;;
7563;SDS011;3823;53.586;10.040;2022-12-07T14:47:10;2.15;;;0.90;;
7563;SDS011;3823;53.586;10.040;2022-12-07T14:49:36;1.50;;;0.93;;
7563;SDS011;3823;53.586;10.040;2022-12-07T14:52:02;3.92;;;0.93;;
7563;SDS011;3823;53.586;10.040;2022-12-07T14:54:29;2.55;;;0.80;;
7563;SDS011;3823;53.586;10.040;2022-12-07T14:56:57;3.45;;;1.10;;
7563;SDS011;3823;53.586;10.040;2022-12-07T14:59:23;4.70;;;1.45;;
7563;SDS011;3823;53.586;10.040;2022-12-07T15:01:49;1.75;;;0.80;;
7563;SDS011;3823;53.586;10.040;2022-12-07T15:04:14;2.85;;;0.90;;
7563;SDS011;3823;53.586;10.040;2022-12-07T15:06:40;2.10;;;0.70;;
7563;SDS011;3823;53.586;10.040;2022-12-07T15:09:08;3.35;;;0.77;;
7563;SDS011;3823;53.586;10.040;2022-12-07T15:11:36;2.65;;;0.90;;
7563;SDS011;3823;53.586;10.040;2022-12-07T15:14:01;2.35;;;0.82;;
7563;SDS011;3823;53.586;10.040;2022-12-07T15:16:33;2.95;;;0.70;;
7563;SDS011;3823;53.586;10.040;2022-12-07T15:18:59;1.85;;;0.82;;
7563;SDS011;3823;53.586;10.040;2022-12-07T15:21:24;1.75;;;0.50;;
7563;SDS011;3823;53.586;10.040;2022-12-07T15:23:50;2.92;;;1.02;;
7563;SDS011;3823;53.586;10.040;2022-12-07T15:26:16;3.30;;;0.93;;
7563;SDS011;3823;53.586;10.040;2022-12-07T15:28:42;2.22;;;1.23;;
7563;SDS011;3823;53.586;10.040;2022-12-07T15:31:11;1.70;;;0.93;;
7563;SDS011;3823;53.586;10.040;2022-12-07T15:33:38;4.28;;;1.20;;
7563;SDS011;3823;53.586;10.040;2022-12-07T15:36:04;4.95;;;1.20;;
7563;SDS011;3823;53.586;10.040;2022-12-07T15:38:31;2.85;;;0.70;;
7563;SDS011;3823;53.586;10.040;2022-12-07T15:40:56;1.75;;;0.70;;
7563;SDS011;3823;53.586;10.040;2022-12-07T15:43:22;1.10;;;0.63;;
7563;SDS011;3823;53.586;10.040;2022-12-07T15:46:06;1.30;;;0.60;;
7563;SDS011;3823;53.586;10.040;2022-12-07T15:48:32;1.05;;;0.43;;
7563;SDS011;3823;53.586;10.040;2022-12-07T15:51:02;2.78;;;1.15;;
7563;SDS011;3823;53.586;10.040;2022-12-07T15:53:33;1.77;;;1.65;;
7563;SDS011;3823;53.586;10.040;2022-12-07T15:55:59;3.85;;;0.82;;
7563;SDS011;3823;53.586;10.040;2022-12-07T15:58:25;1.10;;;0.50;;
7563;SDS011;3823;53.586;10.040;2022-12-07T16:00:51;2.85;;;0.80;;
7563;SDS011;3823;53.586;10.040;2022-12-07T16:03:16;1.83;;;0.80;;
7563;SDS011;3823;53.586;10.040;2022-12-07T16:05:48;2.75;;;0.50;;
7563;SDS011;3823;53.586;10.040;2022-12-07T16:08:14;3.40;;;0.93;;
7563;SDS011;3823;53.586;10.040;2022-12-07T16:10:39;1.20;;;0.50;;
7563;SDS011;3823;53.586;10.040;2022-12-07T16:13:08;3.58;;;1.00;;
7563;SDS011;3823;53.586;10.040;2022-12-07T16:15:37;5.97;;;0.85;;
7563;SDS011;3823;53.586;10.040;2022-12-07T16:18:04;3.65;;;1.02;;
7563;SDS011;3823;53.586;10.040;2022-12-07T16:20:29;7.72;;;0.85;;
7563;SDS011;3823;53.586;10.040;2022-12-07T16:22:55;4.10;;;0.73;;
7563;SDS011;3823;53.586;10.040;2022-12-07T16:25:20;4.03;;;0.90;;
7563;SDS011;3823;53.586;10.040;2022-12-07T16:27:46;6.65;;;1.25;;
7563;SDS011;3823;53.586;10.040;2022-12-07T16:30:12;6.53;;;0.70;;
7563;SDS011;3823;53.586;10.040;2022-12-07T16:32:40;1.52;;;0.77;;
7563;SDS011;3823;53.586;10.040;2022-12-07T16:35:05;1.60;;;0.75;;
7563;SDS011;3823;53.586;10.040;2022-12-07T16:37:31;2.75;;;1.10;;
7563;SDS011;3823;53.586;10.040;2022-12-07T16:39:56;5.43;;;1.17;;
7563;SDS011;3823;53.586;10.040;2022-12-07T16:42:22;3.55;;;0.95;;
7563;SDS011;3823;53.586;10.040;2022-12-07T16:44:48;3.25;;;1.25;;
7563;SDS011;3823;53.586;10.040;2022-12-07T16:47:13;1.90;;;0.85;;
7563;SDS011;3823;53.586;10.040;2022-12-07T16:49:39;11.50;;;5.07;;
7563;SDS011;3823;53.586;10.040;2022-12-07T16:52:04;10.02;;;4.35;;
7563;SDS011;3823;53.586;10.040;2022-12-07T16:54:30;3.95;;;2.47;;
7563;SDS011;3823;53.586;10.040;2022-12-07T16:56:58;3.78;;;1.05;;
7563;SDS011;3823;53.586;10.040;2022-12-07T16:59:23;3.38;;;1.40;;
7563;SDS011;3823;53.586;10.040;2022-12-07T17:01:49;4.40;;;2.10;;
7563;SDS011;3823;53.586;10.040;2022-12-07T17:04:14;5.57;;;2.33;;
7563;SDS011;3823;53.586;10.040;2022-12-07T17:06:40;7.82;;;2.75;;
7563;SDS011;3823;53.586;10.040;2022-12-07T17:09:06;4.72;;;1.88;;
7563;SDS011;3823;53.586;10.040;2022-12-07T17:11:34;3.78;;;2.60;;
7563;SDS011;3823;53.586;10.040;2022-12-07T17:14:00;6.95;;;2.10;;
7563;SDS011;3823;53.586;10.040;2022-12-07T17:16:45;4.10;;;2.08;;
7563;SDS011;3823;53.586;10.040;2022-12-07T17:19:11;6.85;;;2.45;;
7563;SDS011;3823;53.586;10.040;2022-12-07T17:21:39;2.90;;;1.77;;
7563;SDS011;3823;53.586;10.040;2022-12-07T17:24:06;4.72;;;2.20;;
7563;SDS011;3823;53.586;10.040;2022-12-07T17:26:32;4.32;;;1.65;;
7563;SDS011;3823;53.586;10.040;2022-12-07T17:28:58;5.03;;;2.67;;
7563;SDS011;3823;53.586;10.040;2022-12-07T17:31:24;5.25;;;1.92;;
7563;SDS011;3823;53.586;10.040;2022-12-07T17:33:50;6.00;;;2.45;;
7563;SDS011;3823;53.586;10.040;2022-12-07T17:36:21;4.13;;;2.50;;
7563;SDS011;3823;53.586;10.040;2022-12-07T17:38:49;4.05;;;2.15;;